Time;durP1;ratioP1;P1;durP2;ratioP2;P2;SDS_P1;SDS_P2;PMS_P1;PMS_P2;Temp;Humidity;BMP_temperature;BMP_pressure;BME280_temperature;BME280_humidity;BME280_pressure;Samples;Min_cycle;Max_cycle;Signal;HPM_P1;HPM_P2
2021/08/20 00:00:06;;;;;;;5.80;5.22;;;20.20;73.70;;;;;;10358320;28;20049;-56
2021/08/20 00:05:09;;;;;;;6.35;5.25;;;20.20;73.70;;;;;;10358542;28;20038;-55
2021/08/20 00:10:10;;;;;;;6.13;5.53;;;20.20;73.60;;;;;;10338584;28;20030;-55
2021/08/20 00:15:12;;;;;;;6.93;5.40;;;20.20;73.60;;;;;;10361599;28;20034;-55
2021/08/20 00:20:13;;;;;;;6.07;5.47;;;20.20;73.60;;;;;;10371542;28;20378;-55
2021/08/20 00:25:14;;;;;;;5.38;4.82;;;20.20;73.50;;;;;;10355953;28;20049;-55
2021/08/20 00:30:14;;;;;;;5.38;4.88;;;20.20;73.60;;;;;;10335555;28;20053;-54
2021/08/20 00:35:15;;;;;;;5.93;5.32;;;20.20;73.60;;;;;;10339690;28;20057;-55
2021/08/20 00:40:16;;;;;;;5.28;4.78;;;20.20;73.60;;;;;;10365892;28;20132;-55
2021/08/20 00:45:17;;;;;;;5.88;5.22;;;20.20;73.50;;;;;;10362145;28;20519;-55
2021/08/20 00:50:18;;;;;;;7.03;5.78;;;20.10;73.40;;;;;;10339117;28;20049;-55
2021/08/20 00:55:22;;;;;;;5.90;5.22;;;20.20;73.50;;;;;;10337880;28;20034;-55
2021/08/20 01:00:23;;;;;;;7.20;5.53;;;20.20;73.40;;;;;;10338031;28;20085;-55
2021/08/20 01:05:24;;;;;;;5.88;5.28;;;20.10;73.40;;;;;;10347086;28;20096;-55
2021/08/20 01:10:24;;;;;;;5.22;4.60;;;20.20;73.40;;;;;;10369937;28;20029;-55
2021/08/20 01:15:26;;;;;;;6.63;5.35;;;20.20;73.40;;;;;;10360066;28;20030;-55
2021/08/20 01:20:26;;;;;;;6.13;5.43;;;20.20;73.40;;;;;;10345155;28;20035;-55
2021/08/20 01:25:27;;;;;;;6.18;5.32;;;20.10;73.30;;;;;;10350159;28;20375;-55
2021/08/20 01:30:28;;;;;;;6.05;5.45;;;20.10;73.30;;;;;;10366366;28;20491;-55
2021/08/20 01:35:29;;;;;;;5.40;4.90;;;20.10;73.30;;;;;;10355391;28;20109;-55
2021/08/20 01:40:30;;;;;;;6.40;5.78;;;20.10;73.20;;;;;;10336784;28;20487;-55
2021/08/20 01:45:30;;;;;;;5.68;4.97;;;20.10;73.20;;;;;;10352102;28;20030;-55
2021/08/20 01:50:34;;;;;;;6.35;5.70;;;20.10;73.20;;;;;;10377076;28;20088;-55
2021/08/20 01:55:35;;;;;;;5.47;4.97;;;20.10;73.20;;;;;;10343560;28;20069;-54
2021/08/20 02:00:36;;;;;;;5.85;4.88;;;20.10;73.20;;;;;;10336547;28;20062;-55
2021/08/20 02:05:37;;;;;;;6.78;5.22;;;20.10;73.20;;;;;;10340883;28;20037;-55
2021/08/20 02:10:37;;;;;;;5.90;4.65;;;20.10;73.20;;;;;;10376554;28;20470;-56
2021/08/20 02:15:38;;;;;;;6.25;5.65;;;20.10;73.20;;;;;;10344553;28;20036;-55
2021/08/20 02:20:40;;;;;;;6.25;5.35;;;20.10;73.10;;;;;;10344089;28;20495;-55
2021/08/20 02:25:41;;;;;;;5.82;4.97;;;20.10;73.00;;;;;;10342092;28;20041;-55
2021/08/20 02:30:42;;;;;;;6.05;5.45;;;20.10;73.10;;;;;;10362668;28;20049;-55
2021/08/20 02:35:42;;;;;;;5.57;5.05;;;20.10;73.10;;;;;;10339385;28;20073;-55
2021/08/20 02:40:43;;;;;;;5.82;5.22;;;20.10;73.10;;;;;;10334380;28;20499;-55
2021/08/20 02:45:44;;;;;;;6.22;5.63;;;20.10;73.10;;;;;;10362959;28;20120;-55
2021/08/20 02:50:45;;;;;;;5.38;4.47;;;20.10;73.10;;;;;;10374311;28;20033;-55
2021/08/20 02:55:45;;;;;;;5.55;4.90;;;20.00;73.00;;;;;;10337146;28;20065;-55
2021/08/20 03:00:47;;;;;;;6.20;4.97;;;20.10;73.10;;;;;;10334107;28;20069;-55
2021/08/20 03:05:48;;;;;;;5.43;4.93;;;20.00;73.00;;;;;;10341694;28;20026;-55
2021/08/20 03:10:49;;;;;;;8.73;5.65;;;20.00;73.00;;;;;;10374092;28;20045;-55
2021/08/20 03:15:49;;;;;;;6.47;5.43;;;20.00;73.00;;;;;;10336342;28;20057;-55
2021/08/20 03:20:50;;;;;;;5.57;4.97;;;20.00;73.00;;;;;;10341811;28;20065;-54
2021/08/20 03:25:51;;;;;;;6.20;5.60;;;20.00;73.00;;;;;;10336701;28;20022;-54
2021/08/20 03:30:52;;;;;;;5.88;5.35;;;20.00;72.90;;;;;;10371999;28;20080;-55
2021/08/20 03:35:52;;;;;;;6.43;4.90;;;20.00;73.00;;;;;;10355573;28;20058;-55
2021/08/20 03:40:53;;;;;;;5.72;4.75;;;20.00;73.00;;;;;;10332866;28;20117;-53
2021/08/20 03:45:54;;;;;;;6.55;4.82;;;20.00;73.00;;;;;;10341610;28;20022;-55
2021/08/20 03:50:54;;;;;;;5.35;4.72;;;20.00;73.00;;;;;;10373319;28;20153;-56
2021/08/20 03:55:55;;;;;;;7.38;5.55;;;20.00;72.90;;;;;;10368814;28;20387;-55
2021/08/20 04:00:56;;;;;;;6.20;5.60;;;20.00;73.00;;;;;;10373382;28;20034;-55
2021/08/20 04:05:57;;;;;;;6.05;5.07;;;20.00;73.00;;;;;;10341381;28;20525;-55
2021/08/20 04:10:57;;;;;;;6.32;5.72;;;19.90;72.90;;;;;;10340414;28;20160;-55
2021/08/20 04:15:58;;;;;;;6.13;5.53;;;20.00;72.90;;;;;;10340595;28;20113;-55
2021/08/20 04:20:59;;;;;;;7.82;5.40;;;20.00;73.00;;;;;;10352435;28;20181;-57
2021/08/20 04:26:00;;;;;;;7.10;5.50;;;19.90;73.40;;;;;;10356239;28;20030;-57
2021/08/20 04:31:01;;;;;;;6.85;5.30;;;20.00;73.30;;;;;;10354085;28;20089;-57
2021/08/20 04:36:01;;;;;;;7.28;5.25;;;20.00;73.80;;;;;;10352851;28;20121;-56
2021/08/20 04:41:02;;;;;;;6.13;5.38;;;20.10;73.90;;;;;;10353738;28;20494;-55
2021/08/20 04:46:06;;;;;;;8.25;5.35;;;20.10;73.70;;;;;;10351586;28;20120;-56
2021/08/20 04:51:06;;;;;;;7.40;5.20;;;20.10;73.60;;;;;;10350087;28;20539;-56
2021/08/20 04:56:07;;;;;;;7.28;5.53;;;20.10;73.50;;;;;;10356614;28;20120;-56
2021/08/20 05:01:08;;;;;;;11.02;5.80;;;20.10;73.60;;;;;;10363431;28;20108;-57
2021/08/20 05:06:11;;;;;;;7.72;5.57;;;20.10;73.60;;;;;;10362898;28;20092;-56
2021/08/20 05:11:11;;;;;;;8.23;6.40;;;20.00;73.60;;;;;;10346646;28;20485;-57
2021/08/20 05:16:12;;;;;;;13.32;6.65;;;20.00;73.90;;;;;;10365066;28;20030;-56
2021/08/20 05:21:13;;;;;;;8.05;6.00;;;20.00;74.00;;;;;;10348422;28;20153;-57
2021/08/20 05:26:14;;;;;;;9.88;6.40;;;20.00;74.00;;;;;;10349254;28;20456;-57
2021/08/20 05:31:14;;;;;;;7.40;5.95;;;20.00;74.10;;;;;;10349629;28;20041;-57
2021/08/20 05:36:15;;;;;;;7.22;5.28;;;20.00;73.70;;;;;;10345817;28;20032;-57
2021/08/20 05:41:16;;;;;;;7.40;5.95;;;20.00;73.70;;;;;;10326484;28;20072;-57
2021/08/20 05:46:16;;;;;;;7.15;6.00;;;20.00;73.70;;;;;;10354543;28;20519;-56
2021/08/20 05:51:17;;;;;;;7.65;6.20;;;20.00;73.70;;;;;;10362196;28;20128;-56
2021/08/20 05:56:18;;;;;;;9.73;5.88;;;20.00;73.70;;;;;;10377096;28;20094;-56
2021/08/20 06:01:19;;;;;;;6.05;5.45;;;20.00;73.70;;;;;;10343052;28;20173;-54
2021/08/20 06:06:19;;;;;;;6.63;5.57;;;20.00;73.70;;;;;;10336506;28;20031;-56
2021/08/20 06:11:20;;;;;;;6.35;5.53;;;20.00;73.70;;;;;;10335263;28;20070;-56
2021/08/20 06:16:21;;;;;;;6.05;5.18;;;19.90;73.70;;;;;;10335459;28;20101;-56
2021/08/20 06:21:22;;;;;;;7.68;5.53;;;20.00;73.70;;;;;;10343831;28;20073;-56
2021/08/20 06:26:22;;;;;;;7.97;5.90;;;20.00;73.70;;;;;;10334639;28;20023;-57
2021/08/20 06:31:23;;;;;;;7.05;5.57;;;20.00;73.80;;;;;;10345225;28;20202;-56
2021/08/20 06:36:25;;;;;;;5.97;5.25;;;19.90;73.70;;;;;;10352126;28;20061;-55
2021/08/20 06:41:25;;;;;;;8.57;6.03;;;19.90;73.70;;;;;;10365315;28;20074;-56
2021/08/20 06:46:26;;;;;;;9.10;5.70;;;19.90;73.70;;;;;;10334266;28;20054;-56
2021/08/20 06:51:27;;;;;;;6.07;4.97;;;19.90;73.70;;;;;;10334203;28;20054;-56
2021/08/20 06:56:27;;;;;;;7.20;5.85;;;19.90;73.70;;;;;;10332955;28;20030;-56
2021/08/20 07:01:28;;;;;;;5.97;5.32;;;19.90;73.90;;;;;;10332575;28;20057;-56
2021/08/20 07:06:29;;;;;;;8.30;6.38;;;19.90;73.70;;;;;;10341367;28;20467;-56
2021/08/20 07:11:30;;;;;;;6.43;5.13;;;19.90;73.70;;;;;;10348833;28;20027;-56
2021/08/20 07:16:31;;;;;;;6.97;5.72;;;19.90;73.70;;;;;;10346013;28;20377;-56
2021/08/20 07:21:31;;;;;;;6.93;5.32;;;19.90;73.70;;;;;;10355495;28;20394;-56
2021/08/20 07:26:32;;;;;;;7.45;5.82;;;19.90;73.70;;;;;;10367391;28;20037;-57
2021/08/20 07:31:35;;;;;;;7.03;5.80;;;19.90;73.70;;;;;;10366159;28;20117;-56
2021/08/20 07:36:37;;;;;;;6.97;5.63;;;19.90;73.70;;;;;;10349314;28;20058;-56
2021/08/20 07:41:37;;;;;;;6.47;5.82;;;19.90;73.70;;;;;;10346311;28;20095;-56
2021/08/20 07:46:38;;;;;;;6.10;5.47;;;19.90;73.70;;;;;;10338017;28;20125;-56
2021/08/20 07:51:39;;;;;;;9.80;6.47;;;19.90;73.70;;;;;;10332730;28;20489;-56
2021/08/20 07:56:40;;;;;;;5.47;4.97;;;19.90;73.80;;;;;;10332976;28;20030;-56
2021/08/20 08:01:41;;;;;;;7.38;5.43;;;19.90;73.90;;;;;;10332470;28;20374;-56
2021/08/20 08:06:42;;;;;;;5.80;5.15;;;19.90;73.80;;;;;;10332312;28;20510;-56
2021/08/20 08:11:42;;;;;;;6.43;4.90;;;19.90;73.80;;;;;;10356422;28;20474;-54
2021/08/20 08:16:44;;;;;;;5.68;5.18;;;19.90;73.80;;;;;;10372221;28;20378;-56
2021/08/20 08:21:44;;;;;;;6.22;5.32;;;20.00;73.90;;;;;;10371165;28;20069;-56
2021/08/20 08:26:45;;;;;;;6.00;5.00;;;19.90;73.80;;;;;;10364083;28;20046;-56
2021/08/20 08:31:46;;;;;;;5.78;4.93;;;20.00;73.90;;;;;;10367361;28;20034;-56
2021/08/20 08:36:46;;;;;;;6.65;5.70;;;20.00;73.90;;;;;;10357542;28;20107;-56
2021/08/20 08:41:47;;;;;;;6.93;5.55;;;20.00;73.90;;;;;;10357387;28;20582;-56
2021/08/20 08:46:49;;;;;;;5.18;4.63;;;19.90;73.90;;;;;;10331837;28;20113;-55
2021/08/20 08:51:50;;;;;;;5.32;4.70;;;19.90;73.90;;;;;;10337301;28;20026;-54
2021/08/20 08:56:51;;;;;;;5.57;5.07;;;20.00;73.90;;;;;;10337959;28;20034;-55
2021/08/20 09:01:52;;;;;;;6.05;4.97;;;20.00;73.90;;;;;;10338716;28;20084;-56
2021/08/20 09:06:55;;;;;;;5.38;4.80;;;20.00;73.90;;;;;;10337254;28;20030;-55
2021/08/20 09:12:00;;;;;;;6.55;5.80;;;19.90;73.90;;;;;;10338094;28;20046;-55
2021/08/20 09:17:02;;;;;;;7.30;5.90;;;20.00;74.00;;;;;;10338130;28;20034;-55
2021/08/20 09:22:11;;;;;;;5.07;4.57;;;20.00;74.00;;;;;;10342003;28;20424;-55
2021/08/20 09:27:14;;;;;;;6.10;5.45;;;20.00;74.00;;;;;;10336521;28;20152;-55
2021/08/20 09:32:15;;;;;;;6.30;5.35;;;20.00;74.00;;;;;;10337040;28;20390;-56
2021/08/20 09:37:16;;;;;;;5.60;5.07;;;20.00;74.00;;;;;;10339252;28;20036;-55
2021/08/20 09:42:18;;;;;;;6.80;5.68;;;20.00;74.00;;;;;;10347172;28;20054;-55
2021/08/20 09:47:20;;;;;;;6.28;5.68;;;20.00;74.00;;;;;;10343432;28;20058;-56
2021/08/20 09:52:29;;;;;;;5.78;5.13;;;20.00;74.20;;;;;;10347704;28;20101;-56
2021/08/20 09:57:31;;;;;;;6.97;5.27;;;20.00;74.80;;;;;;10349026;28;20459;-56
2021/08/20 10:02:34;;;;;;;6.65;5.30;;;20.10;74.30;;;;;;10350384;28;20479;-55
2021/08/20 10:07:40;;;;;;;5.97;5.38;;;20.10;74.30;;;;;;10350109;28;20030;-56
2021/08/20 10:12:42;;;;;;;6.97;4.90;;;20.10;74.30;;;;;;10348236;28;20022;-56
2021/08/20 10:17:43;;;;;;;5.50;4.90;;;20.10;74.40;;;;;;10355864;28;20018;-54
2021/08/20 10:22:45;;;;;;;5.10;4.50;;;20.10;74.10;;;;;;10335303;28;20034;-56
2021/08/20 10:27:46;;;;;;;6.18;4.90;;;20.10;74.30;;;;;;10335378;28;20042;-56
2021/08/20 10:33:00;;;;;;;5.35;4.57;;;20.10;74.60;;;;;;10334970;28;20520;-56
2021/08/20 10:38:26;;;;;;;6.07;5.47;;;20.10;74.10;;;;;;10337104;28;20026;-56
2021/08/20 10:43:51;;;;;;;6.32;5.70;;;20.20;74.20;;;;;;10345973;28;20046;-56
2021/08/20 10:49:10;;;;;;;5.22;4.43;;;20.20;74.10;;;;;;10335108;28;20545;-56
2021/08/20 10:54:11;;;;;;;5.32;4.55;;;20.10;74.10;;;;;;10341157;28;20069;-56
2021/08/20 10:59:42;;;;;;;6.60;4.70;;;20.20;74.30;;;;;;10335688;28;20037;-56
2021/08/20 11:05:02;;;;;;;5.50;4.80;;;20.20;74.20;;;;;;10334258;28;20045;-56
2021/08/20 11:10:09;;;;;;;6.15;5.38;;;20.20;74.10;;;;;;10348752;28;20040;-56
2021/08/20 11:15:21;;;;;;;5.60;4.85;;;20.20;74.20;;;;;;10355449;28;20037;-57
2021/08/20 11:20:45;;;;;;;5.65;5.03;;;20.20;74.20;;;;;;10358521;28;20120;-56
2021/08/20 11:25:51;;;;;;;6.38;4.70;;;20.20;74.30;;;;;;10358303;28;20030;-56
2021/08/20 11:31:10;;;;;;;5.55;5.00;;;20.30;74.30;;;;;;10361221;28;20034;-57
2021/08/20 11:36:21;;;;;;;6.28;4.60;;;20.30;74.10;;;;;;10353263;28;20093;-56
2021/08/20 11:46:52;;;;;;;5.00;4.05;;;20.30;74.10;;;;;;10334339;28;20070;-57
2021/08/20 11:52:03;;;;;;;4.95;4.40;;;20.40;74.00;;;;;;10358311;28;20037;-56
2021/08/20 11:57:04;;;;;;;5.18;4.50;;;20.40;74.10;;;;;;10370581;28;20040;-56
2021/08/20 12:02:05;;;;;;;4.35;3.72;;;20.40;73.90;;;;;;10369196;28;20034;-55
2021/08/20 12:07:06;;;;;;;5.10;4.57;;;20.40;74.00;;;;;;10370149;28;20026;-56
2021/08/20 12:12:12;;;;;;;6.05;4.78;;;20.50;74.00;;;;;;10370518;28;20118;-56
2021/08/20 12:17:23;;;;;;;4.95;4.32;;;20.50;73.90;;;;;;10365516;28;20049;-56
2021/08/20 12:22:38;;;;;;;4.78;4.15;;;20.50;73.90;;;;;;10329130;28;20026;-55
2021/08/20 12:27:41;;;;;;;4.97;4.47;;;20.60;73.90;;;;;;10339330;28;20034;-56
2021/08/20 12:32:53;;;;;;;5.97;5.07;;;20.60;74.20;;;;;;10339530;28;20391;-56
2021/08/20 12:38:11;;;;;;;5.05;4.35;;;20.60;73.90;;;;;;10339853;28;20026;-56
2021/08/20 12:43:31;;;;;;;5.15;4.65;;;20.60;73.80;;;;;;10358903;28;20054;-56
2021/08/20 12:48:32;;;;;;;5.20;4.70;;;20.70;73.70;;;;;;10338916;28;20038;-56
2021/08/20 12:53:38;;;;;;;5.20;4.68;;;20.70;73.70;;;;;;10336773;28;20030;-55
2021/08/20 12:58:39;;;;;;;5.00;4.07;;;20.60;73.70;;;;;;10336184;28;20379;-56
2021/08/20 13:03:40;;;;;;;4.70;4.20;;;20.70;73.70;;;;;;10348385;28;20065;-55
2021/08/20 13:08:40;;;;;;;5.78;4.28;;;20.70;73.60;;;;;;10337708;28;20061;-55
2021/08/20 13:13:41;;;;;;;5.57;4.88;;;20.70;73.60;;;;;;10337998;28;20065;-55
2021/08/20 13:18:43;;;;;;;4.90;4.32;;;20.70;73.60;;;;;;10345251;28;20434;-56
2021/08/20 13:23:43;;;;;;;5.82;4.97;;;20.70;73.50;;;;;;10373492;28;20037;-56
2021/08/20 13:28:44;;;;;;;5.70;4.20;;;20.70;73.50;;;;;;10364605;28;20069;-56
2021/08/20 13:33:45;;;;;;;4.53;4.03;;;20.70;73.50;;;;;;10375502;28;20625;-56
2021/08/20 13:38:46;;;;;;;4.43;4.03;;;20.70;73.40;;;;;;10336396;28;20045;-55
2021/08/20 13:43:46;;;;;;;6.05;4.45;;;20.70;73.50;;;;;;10359056;28;20131;-56
2021/08/20 13:48:51;;;;;;;5.50;4.78;;;20.70;73.60;;;;;;10336982;28;20368;-56
2021/08/20 13:53:52;;;;;;;5.13;4.38;;;20.70;73.60;;;;;;10344924;28;20074;-56
2021/08/20 13:58:52;;;;;;;6.00;4.75;;;20.60;73.60;;;;;;10336661;28;20130;-56
2021/08/20 14:03:53;;;;;;;5.78;5.25;;;20.70;73.60;;;;;;10336489;28;20109;-55
2021/08/20 14:08:54;;;;;;;6.38;4.82;;;20.60;73.50;;;;;;10335922;28;20233;-56
2021/08/20 14:13:54;;;;;;;7.10;5.25;;;20.60;73.60;;;;;;10336135;28;20109;-56
2021/08/20 14:18:55;;;;;;;5.78;4.00;;;20.60;73.60;;;;;;10343178;28;20046;-56
2021/08/20 14:23:56;;;;;;;5.38;4.88;;;20.60;73.60;;;;;;10335751;28;20077;-56
2021/08/20 14:28:57;;;;;;;6.93;4.80;;;20.60;73.60;;;;;;10335435;28;20479;-56
2021/08/20 14:33:58;;;;;;;4.85;4.10;;;20.60;73.60;;;;;;10336898;28;20037;-56
2021/08/20 14:38:59;;;;;;;5.88;4.95;;;20.60;73.60;;;;;;10334016;28;20026;-56
2021/08/20 14:44:00;;;;;;;6.32;5.07;;;20.60;73.60;;;;;;10343925;28;20153;-56
2021/08/20 14:49:00;;;;;;;5.70;4.03;;;20.60;73.60;;;;;;10337061;28;20380;-56
2021/08/20 14:54:01;;;;;;;6.60;5.25;;;20.60;73.60;;;;;;10366400;28;20069;-57
2021/08/20 14:59:02;;;;;;;6.15;5.20;;;20.60;73.70;;;;;;10374335;28;20030;-56
2021/08/20 15:04:02;;;;;;;5.95;5.18;;;20.60;73.70;;;;;;10373370;28;20030;-56
2021/08/20 15:09:03;;;;;;;5.57;4.15;;;20.60;73.60;;;;;;10374592;28;20104;-56
2021/08/20 15:14:06;;;;;;;6.30;5.47;;;20.60;73.70;;;;;;10373992;28;20053;-56
2021/08/20 15:19:07;;;;;;;6.05;5.15;;;20.60;73.70;;;;;;10354088;28;20109;-56
2021/08/20 15:24:08;;;;;;;5.78;4.68;;;20.60;74.30;;;;;;10315702;28;20121;-56
2021/08/20 15:29:09;;;;;;;5.68;4.85;;;20.60;73.70;;;;;;10331964;28;20034;-56
2021/08/20 15:34:10;;;;;;;6.68;4.90;;;20.60;73.70;;;;;;10333946;28;20112;-56
2021/08/20 15:39:11;;;;;;;6.07;5.32;;;20.60;73.70;;;;;;10333016;28;20531;-56
2021/08/20 15:44:12;;;;;;;5.68;5.07;;;20.60;73.70;;;;;;10342275;28;20046;-56
2021/08/20 15:49:13;;;;;;;6.57;4.97;;;20.60;73.70;;;;;;10332502;28;20034;-55
2021/08/20 15:54:14;;;;;;;5.85;5.20;;;20.60;73.70;;;;;;10332535;28;20110;-56
2021/08/20 15:59:14;;;;;;;5.78;5.00;;;20.60;73.70;;;;;;10350540;28;20057;-57
2021/08/20 16:04:15;;;;;;;5.68;4.75;;;20.60;73.70;;;;;;10379942;28;20041;-56
2021/08/20 16:09:16;;;;;;;6.25;4.78;;;20.60;73.70;;;;;;10381773;28;20115;-57
2021/08/20 16:14:16;;;;;;;6.13;5.10;;;20.60;73.70;;;;;;10381006;28;20018;-56
2021/08/20 16:19:18;;;;;;;5.80;5.13;;;20.60;73.70;;;;;;10359816;28;20027;-56
2021/08/20 16:24:19;;;;;;;5.97;5.38;;;20.60;73.70;;;;;;10339656;28;20035;-56
2021/08/20 16:29:19;;;;;;;5.75;5.25;;;20.50;73.70;;;;;;10344806;28;20430;-56
2021/08/20 16:34:20;;;;;;;7.72;6.05;;;20.60;73.70;;;;;;10342485;28;20113;-56
2021/08/20 16:39:22;;;;;;;6.03;5.43;;;20.60;73.80;;;;;;10339637;28;20105;-56
2021/08/20 16:44:23;;;;;;;6.80;5.45;;;20.50;73.70;;;;;;10378621;28;20529;-56
2021/08/20 16:49:24;;;;;;;5.57;5.00;;;20.60;73.80;;;;;;10361413;28;20125;-57
2021/08/20 16:54:27;;;;;;;5.63;4.95;;;20.60;73.70;;;;;;10367322;28;20424;-56
2021/08/20 16:59:28;;;;;;;5.68;5.15;;;20.60;73.70;;;;;;10378529;28;20025;-56
2021/08/20 17:04:28;;;;;;;5.72;5.03;;;20.60;73.70;;;;;;10351781;28;20108;-56
2021/08/20 17:09:30;;;;;;;5.72;5.10;;;20.50;73.70;;;;;;10378199;28;20482;-56
2021/08/20 17:14:32;;;;;;;5.78;5.15;;;20.60;73.70;;;;;;10378692;28;20459;-56
2021/08/20 17:19:32;;;;;;;5.22;4.53;;;20.50;73.80;;;;;;10355477;28;20378;-56
2021/08/20 17:24:35;;;;;;;5.85;5.15;;;20.60;73.80;;;;;;10338095;28;20065;-57
2021/08/20 17:29:36;;;;;;;6.13;5.07;;;20.60;73.70;;;;;;10353062;28;20534;-57
2021/08/20 17:34:37;;;;;;;6.97;5.93;;;20.60;74.90;;;;;;10359391;28;20467;-56
2021/08/20 17:39:38;;;;;;;5.53;4.70;;;20.60;75.00;;;;;;10371284;28;20430;-57
2021/08/20 17:44:38;;;;;;;6.35;5.57;;;20.60;74.00;;;;;;10343691;28;20026;-56
2021/08/20 17:49:39;;;;;;;6.22;4.75;;;20.60;74.10;;;;;;10354810;28;20025;-58
2021/08/20 17:54:40;;;;;;;9.00;5.35;;;20.60;74.70;;;;;;10349728;28;20030;-57
2021/08/20 17:59:40;;;;;;;6.95;4.93;;;20.70;74.70;;;;;;10342261;28;20038;-56
2021/08/20 18:04:41;;;;;;;5.72;5.13;;;20.70;74.70;;;;;;10336882;28;20077;-56
2021/08/20 18:09:42;;;;;;;6.47;5.50;;;20.70;74.60;;;;;;10334848;28;20591;-55
2021/08/20 18:14:42;;;;;;;5.53;4.90;;;20.80;74.70;;;;;;10358657;28;20049;-56
2021/08/20 18:19:43;;;;;;;7.65;6.35;;;20.70;74.40;;;;;;10343571;28;20023;-56
2021/08/20 18:24:44;;;;;;;8.65;6.10;;;20.70;76.10;;;;;;10344782;28;20479;-56
2021/08/20 18:29:44;;;;;;;6.72;5.53;;;20.70;75.50;;;;;;10345909;28;20030;-57
2021/08/20 18:34:45;;;;;;;7.65;5.63;;;20.70;75.20;;;;;;10333163;28;20101;-57
2021/08/20 18:39:46;;;;;;;6.43;5.72;;;20.70;75.10;;;;;;10362251;28;20065;-57
2021/08/20 18:44:46;;;;;;;6.20;5.60;;;20.70;75.00;;;;;;10345308;28;20098;-56
2021/08/20 18:49:47;;;;;;;7.75;5.63;;;20.70;75.10;;;;;;10341401;28;20113;-56
2021/08/20 18:54:48;;;;;;;6.40;5.68;;;20.70;75.10;;;;;;10334775;28;20023;-55
2021/08/20 18:59:48;;;;;;;6.07;5.10;;;20.70;75.00;;;;;;10334151;28;20057;-55
2021/08/20 19:04:49;;;;;;;5.97;5.35;;;20.70;75.20;;;;;;10334384;28;20065;-54
2021/08/20 19:09:50;;;;;;;5.68;4.97;;;20.70;75.30;;;;;;10334351;28;20374;-56
2021/08/20 19:14:50;;;;;;;6.13;4.72;;;20.70;75.00;;;;;;10342022;28;20157;-55
2021/08/20 19:19:51;;;;;;;8.95;5.30;;;20.70;74.90;;;;;;10352414;28;20117;-57
2021/08/20 19:24:53;;;;;;;6.40;5.78;;;20.80;75.90;;;;;;10351239;28;20072;-56
2021/08/20 19:29:54;;;;;;;6.90;5.13;;;20.80;77.70;;;;;;10346190;28;20027;-55
2021/08/20 19:34:54;;;;;;;7.45;4.97;;;20.80;77.50;;;;;;10354466;28;20068;-55
2021/08/20 19:39:55;;;;;;;10.55;4.80;;;20.80;76.30;;;;;;10372949;28;20057;-54
2021/08/20 19:44:56;;;;;;;8.32;4.65;;;20.80;76.90;;;;;;10372538;28;20057;-55
2021/08/20 19:49:57;;;;;;;7.15;5.10;;;20.90;76.20;;;;;;10339329;28;20045;-55
2021/08/20 19:54:58;;;;;;;6.72;4.60;;;20.80;76.10;;;;;;10352506;28;20034;-54
2021/08/20 19:59:59;;;;;;;8.23;5.35;;;20.80;76.00;;;;;;10353452;28;20395;-54
2021/08/20 20:05:00;;;;;;;5.57;4.97;;;20.80;76.00;;;;;;10340275;28;20124;-54
2021/08/20 20:10:03;;;;;;;5.65;4.82;;;20.70;75.90;;;;;;10331879;28;20054;-54
2021/08/20 20:15:08;;;;;;;6.05;4.93;;;20.70;75.80;;;;;;10330520;28;20034;-55
2021/08/20 20:20:10;;;;;;;5.95;4.30;;;20.70;75.80;;;;;;10339243;28;20030;-55
2021/08/20 20:25:12;;;;;;;5.05;4.55;;;20.70;75.80;;;;;;10331551;28;20030;-54
2021/08/20 20:30:13;;;;;;;5.95;4.85;;;20.70;75.70;;;;;;10332496;28;20034;-55
2021/08/20 20:35:14;;;;;;;6.07;4.65;;;20.70;75.60;;;;;;10332167;28;20097;-54
2021/08/20 20:40:15;;;;;;;5.63;5.03;;;20.70;75.60;;;;;;10332029;28;20078;-55
2021/08/20 20:45:16;;;;;;;4.80;3.90;;;20.70;75.50;;;;;;10333937;28;20468;-54
2021/08/20 20:50:17;;;;;;;4.43;3.95;;;20.70;75.50;;;;;;10339386;28;20113;-55
2021/08/20 20:55:18;;;;;;;7.93;4.55;;;20.70;75.40;;;;;;10339442;28;20022;-54
2021/08/20 21:00:18;;;;;;;4.88;3.83;;;20.70;75.30;;;;;;10339009;28;20038;-54
2021/08/20 21:05:21;;;;;;;5.53;4.35;;;20.70;75.20;;;;;;10338921;28;20031;-53
2021/08/20 21:10:21;;;;;;;4.43;3.95;;;20.70;75.10;;;;;;10338679;28;20065;-54
2021/08/20 21:15:22;;;;;;;4.10;3.70;;;20.70;75.00;;;;;;10338610;28;20057;-54
2021/08/20 21:20:23;;;;;;;4.35;3.90;;;20.70;74.90;;;;;;10345600;28;20368;-55
2021/08/20 21:25:23;;;;;;;4.80;4.18;;;20.70;74.80;;;;;;10338231;28;20454;-55
2021/08/20 21:30:24;;;;;;;4.43;3.80;;;20.70;74.90;;;;;;10362686;28;20605;-55
2021/08/20 21:35:25;;;;;;;4.00;3.30;;;20.60;74.80;;;;;;10337542;28;20026;-55
2021/08/20 21:40:26;;;;;;;5.05;4.05;;;20.60;74.70;;;;;;10336006;28;20128;-55
2021/08/20 21:45:26;;;;;;;7.03;3.83;;;20.70;74.70;;;;;;10348946;28;20105;-54
2021/08/20 21:50:27;;;;;;;4.50;3.90;;;20.60;74.60;;;;;;10336817;28;20129;-55
2021/08/20 21:55:28;;;;;;;5.38;3.95;;;20.60;74.60;;;;;;10336747;28;20415;-54
2021/08/20 22:00:28;;;;;;;4.70;3.47;;;20.60;74.60;;;;;;10348735;28;20034;-55
2021/08/20 22:05:29;;;;;;;4.35;3.40;;;20.60;74.50;;;;;;10336656;28;20026;-55
2021/08/20 22:10:30;;;;;;;4.28;3.85;;;20.60;74.40;;;;;;10336176;28;20049;-54
2021/08/20 22:15:34;;;;;;;4.30;3.63;;;20.60;74.40;;;;;;10336101;28;20445;-54
2021/08/20 22:20:37;;;;;;;3.85;3.45;;;20.60;74.30;;;;;;10354188;28;20133;-54
2021/08/20 22:25:38;;;;;;;3.67;3.38;;;20.60;74.30;;;;;;10376400;28;20018;-55
2021/08/20 22:30:39;;;;;;;4.47;3.55;;;20.60;74.30;;;;;;10362816;28;20037;-55
2021/08/20 22:35:40;;;;;;;4.18;3.35;;;20.60;74.30;;;;;;10376056;28;20037;-55
2021/08/20 22:40:43;;;;;;;4.80;3.60;;;20.60;74.20;;;;;;10375867;28;20046;-54
2021/08/20 22:45:43;;;;;;;3.75;3.00;;;20.60;74.10;;;;;;10374426;28;20466;-55
2021/08/20 22:50:44;;;;;;;4.40;3.30;;;20.60;74.10;;;;;;10375222;28;20068;-55
2021/08/20 22:55:45;;;;;;;4.90;3.83;;;20.50;74.00;;;;;;10375147;28;20029;-54
2021/08/20 23:00:45;;;;;;;3.92;3.30;;;20.50;73.90;;;;;;10375175;28;20113;-54
2021/08/20 23:05:46;;;;;;;4.53;3.63;;;20.60;73.90;;;;;;10360443;28;20021;-53
2021/08/20 23:10:50;;;;;;;4.05;3.58;;;20.60;73.90;;;;;;10374087;28;20108;-55
2021/08/20 23:15:50;;;;;;;4.00;3.33;;;20.50;73.70;;;;;;10374430;28;20029;-55
2021/08/20 23:20:51;;;;;;;3.95;3.20;;;20.50;73.70;;;;;;10340430;28;20030;-54
2021/08/20 23:25:52;;;;;;;4.15;3.15;;;20.50;73.60;;;;;;10333569;28;20030;-54
2021/08/20 23:30:53;;;;;;;4.22;3.50;;;20.50;73.70;;;;;;10332561;28;20479;-55
2021/08/20 23:35:54;;;;;;;3.78;3.10;;;20.50;73.50;;;;;;10333108;28;20109;-55
2021/08/20 23:40:54;;;;;;;3.40;3.00;;;20.50;73.50;;;;;;10333403;28;20046;-54
2021/08/20 23:45:55;;;;;;;5.38;3.40;;;20.50;73.50;;;;;;10333181;28;20065;-54
2021/08/20 23:50:58;;;;;;;4.10;3.65;;;20.50;73.40;;;;;;10331652;28;20030;-55
2021/08/20 23:55:58;;;;;;;3.88;3.10;;;20.50;73.30;;;;;;10333085;28;20030;-55
